Time;durP1;ratioP1;P1;durP2;ratioP2;P2;SDS_P1;SDS_P2;PMS_P1;PMS_P2;Temp;Humidity;BMP_temperature;BMP_pressure;BME280_temperature;BME280_humidity;BME280_pressure;Samples;Min_cycle;Max_cycle;Signal;HPM_P1;HPM_P2
2024/01/12 00:01:45;;;;;;;0.10;0.10;;;;;;;;;;5023950;28;20050;-78
2024/01/12 00:04:11;;;;;;;0.10;0.10;;;;;;;;;;5021633;28;20510;-78
2024/01/12 00:06:38;;;;;;;0.10;0.10;;;;;;;;;;5009202;28;20053;-78
2024/01/12 00:09:05;;;;;;;0.10;0.10;;;;;;;;;;5029277;28;20057;-78
2024/01/12 00:11:31;;;;;;;0.10;0.10;;;;;;;;;;5031195;28;20050;-78
2024/01/12 00:13:58;;;;;;;0.40;0.40;;;;;;;;;;5027154;28;20116;-78
2024/01/12 00:16:24;;;;;;;0.10;0.10;;;;;;;;;;5028250;28;20061;-78
2024/01/12 00:18:51;;;;;;;0.05;0.05;;;;;;;;;;5028845;28;20057;-78
2024/01/12 00:21:17;;;;;;;0.10;0.10;;;;;;;;;;5028648;28;20566;-78
2024/01/12 00:23:44;;;;;;;0.10;0.10;;;;;;;;;;5029703;28;20057;-78
2024/01/12 00:26:10;;;;;;;0.00;0.00;;;;;;;;;;5029605;28;20462;-78
2024/01/12 00:28:37;;;;;;;0.10;0.10;;;;;;;;;;5021330;28;20050;-78
2024/01/12 00:31:03;;;;;;;0.90;0.82;;;;;;;;;;5025463;28;20078;-78
2024/01/12 00:33:30;;;;;;;0.10;0.10;;;;;;;;;;5038147;28;20049;-79
2024/01/12 00:35:56;;;;;;;0.10;0.10;;;;;;;;;;5022019;28;20061;-79
2024/01/12 00:38:23;;;;;;;0.65;0.65;;;;;;;;;;5009133;28;20144;-79
2024/01/12 00:40:49;;;;;;;0.10;0.10;;;;;;;;;;5021826;28;20054;-79
2024/01/12 00:43:16;;;;;;;0.10;0.10;;;;;;;;;;5030871;28;20953;-78
2024/01/12 00:45:42;;;;;;;0.10;0.10;;;;;;;;;;5031514;28;20049;-78
2024/01/12 00:48:08;;;;;;;0.15;0.15;;;;;;;;;;5030457;28;20069;-79
2024/01/12 00:50:35;;;;;;;0.10;0.10;;;;;;;;;;5024950;28;20062;-79
2024/01/12 00:53:02;;;;;;;0.10;0.10;;;;;;;;;;5031101;28;20113;-79
2024/01/12 00:55:29;;;;;;;0.10;0.10;;;;;;;;;;5012927;28;20125;-78
2024/01/12 00:57:55;;;;;;;0.10;0.10;;;;;;;;;;5030841;28;20120;-79
2024/01/12 01:00:22;;;;;;;0.28;0.28;;;;;;;;;;5013235;28;20054;-79
2024/01/12 01:02:48;;;;;;;0.10;0.10;;;;;;;;;;5030734;28;20054;-79
2024/01/12 01:05:14;;;;;;;0.10;0.10;;;;;;;;;;5028591;28;20112;-79
2024/01/12 01:07:41;;;;;;;0.10;0.10;;;;;;;;;;5037983;28;20049;-79
2024/01/12 01:10:08;;;;;;;0.10;0.10;;;;;;;;;;5030574;28;20058;-79
2024/01/12 01:12:34;;;;;;;0.10;0.10;;;;;;;;;;5031107;28;20062;-79
2024/01/12 01:15:01;;;;;;;0.10;0.10;;;;;;;;;;5028419;28;20054;-79
2024/01/12 01:17:27;;;;;;;0.10;0.10;;;;;;;;;;5029530;28;20446;-79
2024/01/12 01:19:54;;;;;;;0.10;0.10;;;;;;;;;;5028116;28;20058;-79
2024/01/12 01:22:20;;;;;;;0.10;0.10;;;;;;;;;;5027517;28;20499;-79
2024/01/12 01:24:47;;;;;;;0.10;0.10;;;;;;;;;;5031316;28;20049;-79
2024/01/12 01:27:13;;;;;;;0.10;0.10;;;;;;;;;;5013346;28;20078;-79
2024/01/12 01:29:39;;;;;;;0.10;0.10;;;;;;;;;;5030103;28;20058;-79
2024/01/12 01:32:06;;;;;;;0.10;0.10;;;;;;;;;;5013254;28;20116;-79
2024/01/12 01:34:32;;;;;;;0.10;0.10;;;;;;;;;;5027842;28;20053;-79
2024/01/12 01:37:02;;;;;;;0.10;0.10;;;;;;;;;;5030271;28;20148;-79
2024/01/12 01:39:29;;;;;;;0.08;0.08;;;;;;;;;;5026281;28;20050;-79
2024/01/12 01:41:56;;;;;;;0.10;0.10;;;;;;;;;;5008893;28;20141;-79
2024/01/12 01:44:25;;;;;;;0.10;0.10;;;;;;;;;;5030151;28;20061;-79
2024/01/12 01:46:51;;;;;;;0.10;0.10;;;;;;;;;;5028622;28;20589;-79
2024/01/12 01:49:18;;;;;;;0.10;0.10;;;;;;;;;;5005152;28;20081;-79
2024/01/12 01:51:45;;;;;;;0.10;0.10;;;;;;;;;;5025170;28;20054;-79
2024/01/12 01:54:11;;;;;;;0.10;0.10;;;;;;;;;;5032060;28;20054;-79
2024/01/12 01:56:38;;;;;;;0.10;0.10;;;;;;;;;;5028515;28;20062;-79
2024/01/12 01:59:05;;;;;;;0.10;0.10;;;;;;;;;;5023738;28;20519;-79
2024/01/12 02:01:32;;;;;;;0.10;0.10;;;;;;;;;;5018052;28;20087;-79
2024/01/12 02:03:59;;;;;;;0.10;0.10;;;;;;;;;;5010648;28;20053;-79
2024/01/12 02:06:25;;;;;;;0.10;0.10;;;;;;;;;;5024722;28;20054;-79
2024/01/12 02:08:52;;;;;;;0.10;0.10;;;;;;;;;;5029437;28;20147;-79
2024/01/12 02:11:19;;;;;;;0.10;0.10;;;;;;;;;;5030757;28;20188;-79
2024/01/12 02:13:45;;;;;;;0.10;0.10;;;;;;;;;;5024174;28;20138;-79
2024/01/12 02:16:12;;;;;;;0.10;0.10;;;;;;;;;;5030718;28;20145;-79
2024/01/12 02:18:38;;;;;;;0.10;0.10;;;;;;;;;;5008609;28;20531;-79
2024/01/12 02:21:05;;;;;;;0.10;0.10;;;;;;;;;;4997259;28;20049;-79
2024/01/12 02:23:31;;;;;;;0.10;0.10;;;;;;;;;;5031014;28;20443;-79
2024/01/12 02:25:58;;;;;;;0.10;0.10;;;;;;;;;;5012461;28;20156;-79
2024/01/12 02:28:24;;;;;;;0.20;0.20;;;;;;;;;;5027803;28;20100;-79
2024/01/12 02:30:51;;;;;;;0.10;0.10;;;;;;;;;;5022591;28;20057;-79
2024/01/12 02:33:17;;;;;;;0.10;0.10;;;;;;;;;;5032448;28;20056;-79
2024/01/12 02:35:44;;;;;;;0.10;0.10;;;;;;;;;;5032079;28;20053;-79
2024/01/12 02:38:10;;;;;;;0.10;0.10;;;;;;;;;;5032885;28;20373;-79
2024/01/12 02:40:37;;;;;;;0.10;0.10;;;;;;;;;;5035253;28;20099;-79
2024/01/12 02:43:03;;;;;;;0.10;0.10;;;;;;;;;;5026127;28;20061;-79
2024/01/12 02:45:30;;;;;;;0.10;0.10;;;;;;;;;;5029598;28;20066;-79
2024/01/12 02:47:56;;;;;;;0.10;0.10;;;;;;;;;;5038288;28;20186;-79
2024/01/12 02:50:23;;;;;;;0.10;0.10;;;;;;;;;;5036884;28;20053;-79
2024/01/12 02:52:49;;;;;;;0.10;0.10;;;;;;;;;;5034168;28;20488;-79
2024/01/12 02:55:16;;;;;;;0.10;0.10;;;;;;;;;;5018323;28;20089;-79
2024/01/12 02:57:43;;;;;;;0.10;0.10;;;;;;;;;;5033290;28;20053;-79
2024/01/12 03:00:10;;;;;;;0.10;0.10;;;;;;;;;;5026172;28;20050;-79
2024/01/12 03:02:36;;;;;;;0.10;0.10;;;;;;;;;;5032842;28;20197;-79
2024/01/12 03:05:03;;;;;;;0.10;0.10;;;;;;;;;;5031135;28;20076;-79
2024/01/12 03:07:29;;;;;;;0.10;0.10;;;;;;;;;;5012735;28;20060;-79
2024/01/12 03:09:55;;;;;;;0.10;0.10;;;;;;;;;;5028129;28;20740;-79
2024/01/12 03:12:22;;;;;;;0.10;0.10;;;;;;;;;;5004209;28;20049;-79
2024/01/12 03:14:48;;;;;;;0.10;0.10;;;;;;;;;;5004670;28;20100;-79
2024/01/12 03:17:15;;;;;;;0.10;0.10;;;;;;;;;;5030620;28;20050;-79
2024/01/12 03:19:41;;;;;;;0.10;0.10;;;;;;;;;;5025257;28;20050;-79
2024/01/12 03:22:08;;;;;;;0.10;0.10;;;;;;;;;;5004700;28;20514;-80
2024/01/12 03:24:34;;;;;;;0.10;0.10;;;;;;;;;;5030274;28;20064;-79
2024/01/12 03:27:00;;;;;;;0.10;0.10;;;;;;;;;;5028843;28;20054;-80
2024/01/12 03:29:27;;;;;;;0.10;0.10;;;;;;;;;;5030319;28;20057;-80
2024/01/12 03:31:54;;;;;;;0.10;0.10;;;;;;;;;;5022523;28;20138;-79
2024/01/12 03:34:20;;;;;;;0.10;0.10;;;;;;;;;;5022577;28;20054;-79
2024/01/12 03:36:47;;;;;;;0.10;0.10;;;;;;;;;;5014368;28;20136;-80
2024/01/12 03:39:14;;;;;;;0.10;0.10;;;;;;;;;;5021375;28;20796;-80
2024/01/12 03:41:40;;;;;;;0.10;0.10;;;;;;;;;;5029516;28;20058;-80
2024/01/12 03:44:06;;;;;;;0.10;0.10;;;;;;;;;;5028325;28;20061;-80
2024/01/12 03:46:33;;;;;;;0.10;0.10;;;;;;;;;;5027505;28;20196;-80
2024/01/12 03:48:59;;;;;;;0.10;0.10;;;;;;;;;;5014562;28;20059;-80
2024/01/12 03:51:26;;;;;;;0.10;0.10;;;;;;;;;;5034127;28;20128;-79
2024/01/12 03:53:52;;;;;;;0.10;0.10;;;;;;;;;;5028347;28;20057;-79
2024/01/12 03:56:19;;;;;;;0.10;0.10;;;;;;;;;;5011222;28;20101;-80
2024/01/12 03:58:45;;;;;;;0.10;0.10;;;;;;;;;;5029556;28;20078;-80
2024/01/12 04:01:11;;;;;;;0.10;0.10;;;;;;;;;;5031030;28;20459;-80
2024/01/12 04:03:39;;;;;;;0.10;0.10;;;;;;;;;;5030018;28;20053;-80
2024/01/12 04:06:09;;;;;;;0.10;0.10;;;;;;;;;;5031493;28;20053;-80
2024/01/12 04:08:35;;;;;;;0.10;0.10;;;;;;;;;;5029643;28;20050;-80
2024/01/12 04:11:02;;;;;;;0.10;0.10;;;;;;;;;;5029306;28;20057;-80
2024/01/12 04:13:28;;;;;;;0.10;0.10;;;;;;;;;;5031576;28;20492;-80
2024/01/12 04:15:55;;;;;;;0.10;0.10;;;;;;;;;;5031367;28;20116;-80
2024/01/12 04:18:21;;;;;;;0.10;0.10;;;;;;;;;;5028980;28;20050;-80
2024/01/12 04:20:48;;;;;;;0.10;0.10;;;;;;;;;;5029991;28;20046;-80
2024/01/12 04:23:14;;;;;;;0.10;0.10;;;;;;;;;;5033219;28;20061;-80
2024/01/12 04:25:41;;;;;;;0.10;0.10;;;;;;;;;;5028426;28;20038;-80
2024/01/12 04:28:08;;;;;;;0.10;0.10;;;;;;;;;;5012704;28;20584;-80
2024/01/12 04:30:34;;;;;;;0.10;0.10;;;;;;;;;;5034078;22;20110;-76
2024/01/12 04:33:00;;;;;;;0.10;0.10;;;;;;;;;;4992015;28;20058;-77
2024/01/12 04:35:29;;;;;;;0.10;0.10;;;;;;;;;;5008804;28;20055;-76
2024/01/12 04:37:56;;;;;;;0.10;0.10;;;;;;;;;;4996195;28;20031;-77
2024/01/12 04:40:22;;;;;;;0.10;0.10;;;;;;;;;;4982284;28;20066;-77
2024/01/12 04:42:48;;;;;;;0.10;0.10;;;;;;;;;;4981298;28;22426;-77
2024/01/12 04:45:15;;;;;;;0.10;0.10;;;;;;;;;;4989075;28;20047;-77
2024/01/12 04:47:41;;;;;;;0.10;0.10;;;;;;;;;;5004611;28;20085;-77
2024/01/12 04:50:08;;;;;;;0.10;0.10;;;;;;;;;;4988232;28;20493;-77
2024/01/12 04:52:37;;;;;;;0.10;0.10;;;;;;;;;;4987579;28;20050;-77
2024/01/12 04:55:04;;;;;;;0.10;0.10;;;;;;;;;;4997537;28;20110;-77
2024/01/12 04:57:31;;;;;;;0.10;0.10;;;;;;;;;;4985982;28;20050;-77
2024/01/12 04:59:59;;;;;;;0.10;0.10;;;;;;;;;;4997565;28;20059;-78
2024/01/12 05:02:26;;;;;;;0.10;0.10;;;;;;;;;;4998395;28;20065;-77
2024/01/12 05:04:53;;;;;;;0.10;0.10;;;;;;;;;;4983868;28;20058;-77
2024/01/12 05:07:19;;;;;;;0.10;0.10;;;;;;;;;;4997562;28;20085;-76
2024/01/12 05:09:45;;;;;;;0.10;0.10;;;;;;;;;;4993134;28;20498;-77
2024/01/12 05:12:12;;;;;;;0.10;0.10;;;;;;;;;;4998305;28;20465;-77
2024/01/12 05:14:38;;;;;;;0.10;0.10;;;;;;;;;;4991132;28;20062;-77
2024/01/12 05:17:08;;;;;;;0.10;0.10;;;;;;;;;;4968603;28;20065;-77
2024/01/12 05:19:34;;;;;;;0.10;0.10;;;;;;;;;;4992385;28;20094;-78
2024/01/12 05:22:00;;;;;;;0.10;0.10;;;;;;;;;;4990332;28;20051;-78
2024/01/12 05:24:30;;;;;;;0.10;0.10;;;;;;;;;;5003310;28;20058;-78
2024/01/12 05:26:56;;;;;;;0.10;0.10;;;;;;;;;;4990035;28;20058;-77
2024/01/12 05:29:25;;;;;;;0.10;0.10;;;;;;;;;;4976759;28;20055;-78
2024/01/12 05:31:52;;;;;;;0.10;0.10;;;;;;;;;;4979679;28;20054;-78
2024/01/12 05:34:18;;;;;;;0.10;0.10;;;;;;;;;;4991650;28;20090;-78
2024/01/12 05:36:45;;;;;;;0.10;0.10;;;;;;;;;;4977345;28;20059;-77
2024/01/12 05:39:11;;;;;;;0.10;0.10;;;;;;;;;;4990977;28;20054;-78
2024/01/12 05:41:38;;;;;;;0.10;0.10;;;;;;;;;;4974885;28;20055;-77
2024/01/12 05:44:04;;;;;;;0.10;0.10;;;;;;;;;;4992061;28;20051;-78
2024/01/12 05:46:30;;;;;;;0.10;0.10;;;;;;;;;;4982629;28;20134;-78
2024/01/12 05:48:57;;;;;;;0.10;0.10;;;;;;;;;;4991853;28;20055;-78
2024/01/12 05:51:24;;;;;;;0.00;0.00;;;;;;;;;;4993288;28;20051;-78
2024/01/12 05:53:51;;;;;;;0.10;0.10;;;;;;;;;;4994994;28;20050;-78
2024/01/12 05:56:17;;;;;;;0.10;0.10;;;;;;;;;;4988519;28;20055;-78
2024/01/12 05:58:44;;;;;;;0.10;0.10;;;;;;;;;;4992810;28;20063;-77
2024/01/12 06:01:10;;;;;;;0.10;0.10;;;;;;;;;;4974932;28;20139;-77
2024/01/12 06:03:38;;;;;;;0.10;0.10;;;;;;;;;;4988429;28;20046;-78
2024/01/12 06:06:05;;;;;;;0.10;0.10;;;;;;;;;;4975349;28;20050;-77
2024/01/12 06:08:31;;;;;;;0.10;0.10;;;;;;;;;;4975023;28;20153;-78
2024/01/12 06:10:58;;;;;;;0.10;0.10;;;;;;;;;;4991466;28;20061;-78
2024/01/12 06:13:24;;;;;;;0.10;0.10;;;;;;;;;;4992688;28;20137;-78
2024/01/12 06:15:51;;;;;;;0.10;0.10;;;;;;;;;;4987794;28;20581;-78
2024/01/12 06:18:20;;;;;;;0.10;0.10;;;;;;;;;;4974485;28;20059;-79
2024/01/12 06:20:47;;;;;;;0.10;0.10;;;;;;;;;;5007940;28;20090;-78
2024/01/12 06:23:13;;;;;;;0.10;0.10;;;;;;;;;;4993786;28;20055;-77
2024/01/12 06:25:40;;;;;;;0.10;0.10;;;;;;;;;;5009119;28;20129;-79
2024/01/12 06:28:07;;;;;;;0.10;0.10;;;;;;;;;;4993210;28;20051;-78
2024/01/12 06:30:33;;;;;;;0.10;0.10;;;;;;;;;;4992418;28;20057;-79
2024/01/12 06:32:59;;;;;;;0.10;0.10;;;;;;;;;;4997980;28;20106;-79
2024/01/12 06:35:26;;;;;;;0.10;0.10;;;;;;;;;;4978901;28;20062;-78
2024/01/12 06:37:53;;;;;;;0.10;0.10;;;;;;;;;;4992100;28;20114;-79
2024/01/12 06:40:20;;;;;;;0.05;0.05;;;;;;;;;;4971996;28;20139;-79
2024/01/12 06:42:46;;;;;;;0.10;0.10;;;;;;;;;;4974251;28;20059;-79
2024/01/12 06:45:12;;;;;;;0.10;0.10;;;;;;;;;;4973169;28;20054;-79
2024/01/12 06:47:39;;;;;;;0.10;0.10;;;;;;;;;;4974263;28;20117;-78
2024/01/12 06:50:06;;;;;;;0.10;0.10;;;;;;;;;;4992609;28;20090;-78
2024/01/12 06:52:32;;;;;;;0.10;0.10;;;;;;;;;;4992200;28;20066;-79
2024/01/12 06:54:59;;;;;;;0.10;0.10;;;;;;;;;;4972743;28;20649;-77
2024/01/12 06:57:25;;;;;;;0.45;0.45;;;;;;;;;;4972906;28;20421;-77
2024/01/12 06:59:52;;;;;;;0.10;0.10;;;;;;;;;;4990312;28;20054;-78
2024/01/12 07:02:18;;;;;;;0.10;0.10;;;;;;;;;;4972337;28;20138;-78
2024/01/12 07:04:45;;;;;;;0.10;0.10;;;;;;;;;;4972796;28;20069;-77
2024/01/12 07:07:11;;;;;;;0.10;0.10;;;;;;;;;;4972244;28;20058;-78
2024/01/12 07:09:39;;;;;;;0.10;0.10;;;;;;;;;;4971379;28;20058;-77
2024/01/12 07:12:05;;;;;;;0.10;0.10;;;;;;;;;;4981551;28;20948;-78
2024/01/12 07:14:32;;;;;;;0.10;0.10;;;;;;;;;;4992970;28;20525;-78
2024/01/12 07:16:59;;;;;;;0.10;0.10;;;;;;;;;;5005235;28;20060;-78
2024/01/12 07:19:25;;;;;;;0.10;0.10;;;;;;;;;;5003201;28;20514;-79
2024/01/12 07:21:52;;;;;;;0.00;0.00;;;;;;;;;;4980929;28;20051;-78
2024/01/12 07:24:18;;;;;;;0.10;0.10;;;;;;;;;;4975045;28;20532;-78
2024/01/12 07:26:45;;;;;;;0.10;0.10;;;;;;;;;;4991121;28;20145;-77
2024/01/12 07:29:14;;;;;;;0.00;0.00;;;;;;;;;;5010664;28;20109;-78
2024/01/12 07:31:40;;;;;;;0.10;0.10;;;;;;;;;;4991515;28;20069;-78
2024/01/12 07:34:07;;;;;;;0.10;0.10;;;;;;;;;;4967843;28;20063;-78
2024/01/12 07:36:33;;;;;;;0.10;0.10;;;;;;;;;;4992101;28;20733;-78
2024/01/12 07:39:00;;;;;;;0.10;0.10;;;;;;;;;;4981431;28;20063;-78
2024/01/12 07:41:26;;;;;;;0.10;0.10;;;;;;;;;;4989291;28;20848;-78
2024/01/12 07:43:54;;;;;;;0.10;0.10;;;;;;;;;;4970342;28;20535;-79
2024/01/12 07:46:20;;;;;;;0.10;0.10;;;;;;;;;;4986822;28;20133;-79
2024/01/12 07:48:49;;;;;;;0.10;0.10;;;;;;;;;;4976312;28;20870;-79
2024/01/12 07:51:16;;;;;;;0.10;0.10;;;;;;;;;;4970823;28;20050;-78
2024/01/12 07:53:42;;;;;;;0.10;0.10;;;;;;;;;;4977715;28;20059;-79
2024/01/12 07:56:09;;;;;;;0.10;0.10;;;;;;;;;;4998618;28;20113;-78
2024/01/12 07:58:36;;;;;;;0.10;0.10;;;;;;;;;;4987913;28;20054;-79
2024/01/12 08:01:05;;;;;;;0.10;0.10;;;;;;;;;;4977788;28;20531;-79
2024/01/12 08:03:32;;;;;;;0.10;0.10;;;;;;;;;;4971921;28;20121;-80
2024/01/12 08:06:00;;;;;;;0.10;0.10;;;;;;;;;;4987127;28;20086;-79
2024/01/12 08:08:27;;;;;;;0.10;0.10;;;;;;;;;;5006868;28;20062;-79
2024/01/12 08:10:54;;;;;;;0.10;0.10;;;;;;;;;;5002122;28;20133;-78
2024/01/12 08:13:20;;;;;;;0.10;0.10;;;;;;;;;;4996752;28;20141;-79
2024/01/12 08:15:47;;;;;;;0.00;0.00;;;;;;;;;;4981755;28;20843;-79
2024/01/12 08:18:13;;;;;;;0.10;0.10;;;;;;;;;;4977881;28;20137;-79
2024/01/12 08:20:40;;;;;;;0.10;0.10;;;;;;;;;;5008762;28;20089;-79
2024/01/12 08:23:06;;;;;;;0.10;0.10;;;;;;;;;;5006943;28;20062;-78
2024/01/12 08:25:33;;;;;;;0.05;0.05;;;;;;;;;;4994967;28;20086;-78
2024/01/12 08:27:59;;;;;;;0.10;0.10;;;;;;;;;;4982183;28;20058;-78
2024/01/12 08:30:26;;;;;;;0.10;0.10;;;;;;;;;;4977169;28;20059;-80
2024/01/12 08:32:54;;;;;;;0.10;0.10;;;;;;;;;;4974584;28;20069;-79
2024/01/12 08:35:21;;;;;;;0.10;0.10;;;;;;;;;;4996028;28;20073;-78
2024/01/12 08:37:47;;;;;;;0.10;0.10;;;;;;;;;;4977396;28;20532;-78
2024/01/12 08:40:14;;;;;;;0.10;0.10;;;;;;;;;;4976610;28;20058;-78
2024/01/12 08:42:40;;;;;;;0.10;0.10;;;;;;;;;;4973607;28;20050;-79
2024/01/12 08:45:07;;;;;;;0.10;0.10;;;;;;;;;;4990233;28;20062;-79
2024/01/12 08:47:33;;;;;;;0.00;0.00;;;;;;;;;;4973598;28;20063;-80
2024/01/12 08:50:00;;;;;;;0.10;0.10;;;;;;;;;;4987636;28;20065;-78
2024/01/12 08:52:28;;;;;;;0.10;0.10;;;;;;;;;;4991435;28;20879;-78
2024/01/12 08:54:54;;;;;;;0.10;0.10;;;;;;;;;;4988181;28;20113;-79
2024/01/12 08:57:20;;;;;;;0.10;0.10;;;;;;;;;;5004441;28;20047;-80
2024/01/12 08:59:47;;;;;;;0.10;0.10;;;;;;;;;;4987197;28;20061;-79
2024/01/12 09:02:14;;;;;;;0.10;0.10;;;;;;;;;;5008220;28;20497;-79
2024/01/12 09:04:41;;;;;;;0.10;0.10;;;;;;;;;;4992438;28;20063;-79
2024/01/12 09:07:07;;;;;;;0.10;0.10;;;;;;;;;;4979159;28;20078;-80
2024/01/12 09:09:34;;;;;;;0.10;0.10;;;;;;;;;;5003613;28;20090;-79
2024/01/12 09:12:01;;;;;;;0.10;0.10;;;;;;;;;;4979475;28;20133;-80
2024/01/12 09:14:27;;;;;;;0.00;0.00;;;;;;;;;;4999221;28;20084;-80
2024/01/12 09:16:54;;;;;;;0.10;0.10;;;;;;;;;;4994461;28;20081;-79
2024/01/12 09:19:20;;;;;;;0.10;0.10;;;;;;;;;;4975180;28;20058;-79
2024/01/12 09:21:47;;;;;;;1.45;1.35;;;;;;;;;;4986805;28;20054;-80
2024/01/12 09:24:13;;;;;;;0.10;0.10;;;;;;;;;;4995147;28;20058;-80
2024/01/12 09:26:40;;;;;;;0.10;0.10;;;;;;;;;;4975223;28;20228;-80
2024/01/12 09:29:06;;;;;;;0.10;0.10;;;;;;;;;;4993139;28;20051;-79
2024/01/12 09:31:33;;;;;;;0.10;0.10;;;;;;;;;;4965736;28;20086;-80
2024/01/12 09:33:59;;;;;;;0.20;0.20;;;;;;;;;;4988170;28;20141;-80
2024/01/12 09:36:26;;;;;;;0.10;0.10;;;;;;;;;;4986847;28;20085;-80
2024/01/12 09:38:54;;;;;;;0.10;0.10;;;;;;;;;;4988739;28;20054;-80
2024/01/12 09:41:28;;;;;;;0.10;0.10;;;;;;;;;;4975778;28;20098;-80
2024/01/12 09:43:57;;;;;;;0.10;0.10;;;;;;;;;;4974403;28;20066;-79
2024/01/12 09:46:26;;;;;;;0.10;0.10;;;;;;;;;;4982904;28;20062;-79
2024/01/12 09:48:52;;;;;;;0.10;0.10;;;;;;;;;;4979153;28;20047;-80
2024/01/12 09:51:20;;;;;;;0.10;0.10;;;;;;;;;;5001394;28;20902;-79
2024/01/12 09:53:48;;;;;;;0.10;0.10;;;;;;;;;;4968737;28;20544;-82
2024/01/12 09:56:15;;;;;;;0.10;0.10;;;;;;;;;;4982601;28;20094;-79
2024/01/12 09:58:44;;;;;;;0.10;0.10;;;;;;;;;;4987783;28;20065;-79
2024/01/12 10:01:14;;;;;;;0.10;0.10;;;;;;;;;;4995107;28;20051;-81
2024/01/12 10:03:46;;;;;;;0.10;0.10;;;;;;;;;;4992741;28;20062;-80
2024/01/12 10:06:12;;;;;;;0.17;0.17;;;;;;;;;;4977762;28;20051;-80
2024/01/12 10:08:40;;;;;;;0.10;0.10;;;;;;;;;;4982425;28;20051;-80
2024/01/12 10:11:07;;;;;;;0.32;0.32;;;;;;;;;;5002656;28;20134;-80
2024/01/12 10:13:34;;;;;;;0.10;0.10;;;;;;;;;;5009263;28;20100;-80
2024/01/12 10:16:01;;;;;;;0.10;0.10;;;;;;;;;;4986697;28;20606;-80
2024/01/12 10:18:28;;;;;;;0.10;0.10;;;;;;;;;;4971295;28;20061;-80
2024/01/12 10:20:56;;;;;;;0.10;0.10;;;;;;;;;;4984925;28;20055;-80
2024/01/12 10:23:23;;;;;;;0.10;0.10;;;;;;;;;;4978109;28;20090;-80
2024/01/12 10:25:59;;;;;;;0.10;0.10;;;;;;;;;;4969301;28;20063;-79
2024/01/12 10:28:29;;;;;;;0.10;0.10;;;;;;;;;;4986577;28;20083;-81
2024/01/12 10:30:56;;;;;;;0.10;0.10;;;;;;;;;;4973835;28;20519;-81
2024/01/12 10:33:23;;;;;;;0.10;0.10;;;;;;;;;;5111303;23;20143;-80
2024/01/12 10:36:05;;;;;;;0.10;0.10;;;;;;;;;;5074794;28;20053;-79
2024/01/12 10:38:34;;;;;;;0.10;0.10;;;;;;;;;;5072102;28;20056;-80
2024/01/12 10:41:03;;;;;;;0.10;0.10;;;;;;;;;;5055048;28;20053;-80
2024/01/12 10:43:34;;;;;;;0.10;0.10;;;;;;;;;;5050916;28;20570;-79
2024/01/12 10:46:04;;;;;;;0.10;0.10;;;;;;;;;;5055451;28;20068;-80
2024/01/12 10:48:33;;;;;;;0.10;0.10;;;;;;;;;;5052803;28;20139;-80
2024/01/12 10:51:00;;;;;;;0.10;0.10;;;;;;;;;;5053489;28;20108;-80
2024/01/12 10:53:31;;;;;;;0.10;0.10;;;;;;;;;;5053634;28;20153;-80
2024/01/12 10:55:59;;;;;;;0.57;0.57;;;;;;;;;;5052367;28;20602;-80
2024/01/12 10:58:25;;;;;;;0.10;0.10;;;;;;;;;;5048813;28;20054;-80
2024/01/12 11:00:52;;;;;;;0.10;0.10;;;;;;;;;;5040206;28;21014;-80
2024/01/12 11:03:20;;;;;;;0.65;0.65;;;;;;;;;;5039033;28;20052;-79
2024/01/12 11:05:47;;;;;;;0.10;0.10;;;;;;;;;;5053117;28;20522;-80
2024/01/12 11:08:14;;;;;;;0.10;0.10;;;;;;;;;;5049660;28;20049;-80
2024/01/12 11:10:49;;;;;;;0.10;0.10;;;;;;;;;;5051737;28;20053;-80
2024/01/12 11:13:17;;;;;;;5.47;1.95;;;;;;;;;;5051188;28;20156;-80
2024/01/12 11:15:44;;;;;;;0.05;0.05;;;;;;;;;;5053908;28;20053;-79
2024/01/12 11:18:10;;;;;;;0.10;0.10;;;;;;;;;;5050446;28;20053;-79
2024/01/12 11:20:38;;;;;;;0.10;0.10;;;;;;;;;;5034934;28;20054;-80
2024/01/12 11:23:08;;;;;;;0.10;0.10;;;;;;;;;;5047524;28;20053;-80
2024/01/12 11:25:34;;;;;;;0.10;0.10;;;;;;;;;;5051539;28;20049;-79
2024/01/12 11:28:01;;;;;;;0.10;0.10;;;;;;;;;;5052794;28;20053;-79
2024/01/12 11:30:29;;;;;;;0.10;0.10;;;;;;;;;;5052765;28;20049;-79
2024/01/12 11:33:04;;;;;;;0.10;0.10;;;;;;;;;;5045092;28;20053;-79
2024/01/12 11:35:31;;;;;;;0.10;0.10;;;;;;;;;;5052058;28;20774;-79
2024/01/12 11:37:59;;;;;;;0.10;0.10;;;;;;;;;;5045361;28;20108;-79
2024/01/12 11:40:27;;;;;;;0.35;0.35;;;;;;;;;;5052221;28;20064;-79
2024/01/12 11:42:53;;;;;;;0.10;0.10;;;;;;;;;;5049889;28;20098;-79
2024/01/12 11:45:20;;;;;;;0.10;0.10;;;;;;;;;;5051098;28;20058;-79
2024/01/12 11:47:47;;;;;;;0.10;0.10;;;;;;;;;;5052292;28;20054;-79
2024/01/12 11:50:16;;;;;;;0.10;0.10;;;;;;;;;;5052359;28;20054;-79
2024/01/12 11:52:53;;;;;;;0.10;0.10;;;;;;;;;;5046407;28;20527;-79
2024/01/12 11:55:20;;;;;;;0.52;0.52;;;;;;;;;;5049723;28;20069;-79
2024/01/12 11:57:46;;;;;;;0.10;0.10;;;;;;;;;;5051065;28;20088;-80
2024/01/12 12:00:13;;;;;;;0.10;0.10;;;;;;;;;;5054034;28;20057;-79
2024/01/12 12:02:39;;;;;;;0.10;0.10;;;;;;;;;;5060983;28;20109;-79
2024/01/12 12:05:07;;;;;;;0.57;0.57;;;;;;;;;;5054647;28;20893;-79
2024/01/12 12:07:36;;;;;;;0.10;0.10;;;;;;;;;;5051779;28;20785;-79
2024/01/12 12:10:02;;;;;;;0.10;0.10;;;;;;;;;;5048296;28;20486;-79
2024/01/12 12:12:29;;;;;;;0.10;0.10;;;;;;;;;;5052939;28;20056;-79
2024/01/12 12:14:55;;;;;;;0.10;0.10;;;;;;;;;;5062001;28;20671;-78
2024/01/12 12:17:25;;;;;;;0.10;0.10;;;;;;;;;;5062007;28;20092;-79
2024/01/12 12:19:52;;;;;;;0.10;0.10;;;;;;;;;;5046247;28;20049;-79
2024/01/12 12:22:18;;;;;;;0.10;0.10;;;;;;;;;;5064063;28;20033;-79
2024/01/12 12:24:45;;;;;;;0.10;0.10;;;;;;;;;;5065055;28;20053;-79
2024/01/12 12:27:11;;;;;;;0.10;0.10;;;;;;;;;;5060639;28;20050;-79
2024/01/12 12:29:39;;;;;;;0.10;0.10;;;;;;;;;;5055488;28;20364;-79
2024/01/12 12:32:09;;;;;;;0.10;0.10;;;;;;;;;;5061194;28;20061;-79
2024/01/12 12:34:37;;;;;;;0.10;0.10;;;;;;;;;;5064431;28;20030;-79
2024/01/12 12:37:08;;;;;;;0.10;0.10;;;;;;;;;;5061885;28;20049;-79
2024/01/12 12:39:37;;;;;;;0.10;0.10;;;;;;;;;;5062756;28;20049;-79
2024/01/12 12:42:04;;;;;;;0.10;0.10;;;;;;;;;;5044481;28;20052;-79
2024/01/12 12:44:32;;;;;;;0.20;0.20;;;;;;;;;;5045938;28;20073;-79
2024/01/12 12:46:58;;;;;;;0.10;0.10;;;;;;;;;;5063259;28;20464;-79
2024/01/12 12:49:34;;;;;;;0.20;0.20;;;;;;;;;;5063612;28;20046;-79
2024/01/12 12:52:01;;;;;;;0.32;0.32;;;;;;;;;;5054396;28;20060;-79
2024/01/12 12:54:27;;;;;;;0.10;0.10;;;;;;;;;;5053148;28;20045;-82
2024/01/12 12:56:58;;;;;;;0.10;0.10;;;;;;;;;;5051889;28;20095;-80
2024/01/12 12:59:24;;;;;;;;;;;;;;;;;;5053388;28;20574;-78
2024/01/12 13:01:51;;;;;;;0.10;0.10;;;;;;;;;;5039011;28;47205;-78
2024/01/12 13:04:18;;;;;;;0.10;0.10;;;;;;;;;;5048968;28;20112;-78
2024/01/12 13:06:44;;;;;;;0.10;0.10;;;;;;;;;;5039589;28;20534;-78
2024/01/12 13:09:11;;;;;;;0.10;0.10;;;;;;;;;;5023055;28;20053;-78
2024/01/12 13:11:37;;;;;;;0.10;0.10;;;;;;;;;;5035437;28;20135;-78
2024/01/12 13:14:04;;;;;;;0.10;0.10;;;;;;;;;;5044603;28;20061;-78
2024/01/12 13:16:30;;;;;;;0.10;0.10;;;;;;;;;;5045479;28;20784;-78
2024/01/12 13:18:57;;;;;;;0.10;0.10;;;;;;;;;;5046738;28;20057;-78
2024/01/12 13:21:43;;;;;;;0.10;0.10;;;;;;;;;;5038744;28;20483;-78
2024/01/12 13:24:10;;;;;;;0.10;0.10;;;;;;;;;;5047702;28;20053;-78
2024/01/12 13:26:36;;;;;;;0.10;0.10;;;;;;;;;;5043884;28;20057;-78
2024/01/12 13:29:04;;;;;;;0.10;0.10;;;;;;;;;;5051960;28;20054;-78
2024/01/12 13:31:31;;;;;;;0.10;0.10;;;;;;;;;;5038255;28;20526;-78
2024/01/12 13:33:58;;;;;;;0.10;0.10;;;;;;;;;;5040193;28;20053;-78
2024/01/12 13:36:25;;;;;;;0.10;0.10;;;;;;;;;;5045596;28;20057;-78
2024/01/12 13:38:53;;;;;;;0.10;0.10;;;;;;;;;;5047557;28;20057;-78
2024/01/12 13:41:21;;;;;;;0.10;0.10;;;;;;;;;;5048540;28;20051;-78
2024/01/12 13:43:48;;;;;;;0.20;0.20;;;;;;;;;;5047739;28;20527;-78
2024/01/12 13:46:14;;;;;;;1.10;1.00;;;;;;;;;;5054847;28;20131;-78
2024/01/12 13:48:41;;;;;;;0.10;0.10;;;;;;;;;;5047778;28;20049;-78
2024/01/12 13:51:10;;;;;;;1.17;0.90;;;;;;;;;;5049179;28;20111;-78
2024/01/12 13:53:37;;;;;;;0.10;0.10;;;;;;;;;;5043673;28;20203;-78
2024/01/12 13:56:04;;;;;;;0.10;0.10;;;;;;;;;;5049334;28;20097;-78
2024/01/12 13:58:31;;;;;;;0.10;0.10;;;;;;;;;;5031288;28;20128;-78
2024/01/12 14:00:57;;;;;;;0.10;0.10;;;;;;;;;;5047922;28;20056;-78
2024/01/12 14:03:24;;;;;;;0.10;0.10;;;;;;;;;;5055092;28;20060;-78
2024/01/12 14:05:51;;;;;;;0.10;0.10;;;;;;;;;;5046537;28;20417;-78
2024/01/12 14:08:18;;;;;;;0.10;0.10;;;;;;;;;;5046745;28;20049;-78
2024/01/12 14:10:48;;;;;;;0.10;0.10;;;;;;;;;;5046630;28;20500;-78
2024/01/12 14:13:16;;;;;;;0.10;0.10;;;;;;;;;;5042144;28;20060;-78
2024/01/12 14:15:43;;;;;;;0.10;0.10;;;;;;;;;;5051624;28;20612;-78
2024/01/12 14:18:10;;;;;;;0.10;0.10;;;;;;;;;;5048020;28;20152;-78
2024/01/12 14:20:38;;;;;;;0.10;0.10;;;;;;;;;;5029639;28;20132;-78
2024/01/12 14:23:05;;;;;;;0.10;0.10;;;;;;;;;;5046489;28;20057;-78
2024/01/12 14:25:32;;;;;;;0.10;0.10;;;;;;;;;;5042040;28;20948;-78
2024/01/12 14:27:59;;;;;;;0.10;0.10;;;;;;;;;;5044918;28;20068;-78
2024/01/12 14:30:29;;;;;;;;;;;;;;;;;;5049261;28;20056;-78
2024/01/12 14:32:56;;;;;;;0.10;0.10;;;;;;;;;;5060941;28;45772;-78
2024/01/12 14:35:23;;;;;;;0.10;0.10;;;;;;;;;;5052120;28;20053;-78
2024/01/12 14:37:50;;;;;;;0.10;0.10;;;;;;;;;;5044386;28;20495;-78
2024/01/12 14:40:17;;;;;;;0.20;0.20;;;;;;;;;;5045153;28;20053;-78
2024/01/12 14:42:43;;;;;;;0.10;0.10;;;;;;;;;;5047287;28;20111;-78